Time;durP1;ratioP1;P1;durP2;ratioP2;P2;SDS_P1;SDS_P2;PMS_P1;PMS_P2;Temp;Humidity;BMP_temperature;BMP_pressure;BME280_temperature;BME280_humidity;BME280_pressure;Samples;Min_cycle;Max_cycle;Signal;HPM_P1;HPM_P2
2021/12/05 00:22:45;;;;;;;5.30;2.70;;;;;;;0.97;52.01;95214.46;107413;1281;34496;-77
2021/12/05 00:25:20;;;;;;;7.90;3.70;;;;;;;0.99;51.91;95214.86;107467;1285;31798;-76
2021/12/05 00:27:59;;;;;;;7.20;3.40;;;;;;;1.01;52.11;95215.92;107435;1287;33660;-76
2021/12/05 00:30:51;;;;;;;7.80;4.20;;;;;;;1.00;51.73;95209.39;107542;1287;36328;-77
2021/12/05 00:33:40;;;;;;;8.40;4.00;;;;;;;1.01;51.91;95207.79;107477;1287;27729;-77
2021/12/05 00:39:32;;;;;;;8.50;4.10;;;;;;;0.96;52.18;95218.06;107359;1284;37406;-77
2021/12/05 00:42:39;;;;;;;7.40;4.20;;;;;;;0.94;52.38;95221.39;107469;1285;31685;-77
2021/12/05 00:48:15;;;;;;;10.60;4.50;;;;;;;0.90;52.59;95218.55;107624;1284;38002;-77
2021/12/05 00:56:55;;;;;;;7.70;4.00;;;;;;;0.84;52.61;95219.18;107453;1285;42516;-77
2021/12/05 00:59:59;;;;;;;10.00;4.30;;;;;;;0.85;52.38;95226.52;107566;1284;41126;-77
2021/12/05 01:02:40;;;;;;;9.80;4.10;;;;;;;0.84;52.90;95231.91;107604;1283;32535;-77
2021/12/05 01:08:25;;;;;;;10.40;4.60;;;;;;;0.81;53.26;95237.64;107528;1282;36645;-77
2021/12/05 01:11:18;;;;;;;9.90;4.50;;;;;;;0.80;52.99;95234.55;107573;1284;33670;-77
2021/12/05 01:14:00;;;;;;;8.10;4.50;;;;;;;0.79;53.00;95234.39;107533;1282;41192;-76
2021/12/05 01:16:30;;;;;;;7.00;4.10;;;;;;;0.79;53.23;95232.52;107466;1286;35306;-77
2021/12/05 01:18:59;;;;;;;8.20;4.30;;;;;;;0.78;53.45;95231.20;107527;1286;27073;-77
2021/12/05 01:21:28;;;;;;;8.90;4.70;;;;;;;0.78;53.31;95228.75;107566;1284;35071;-77
2021/12/05 01:24:12;;;;;;;8.80;4.30;;;;;;;0.77;53.47;95225.56;107690;1284;36706;-77
2021/12/05 01:26:48;;;;;;;5.70;3.50;;;;;;;0.76;53.45;95222.06;107557;1284;43344;-77
2021/12/05 01:29:31;;;;;;;9.10;4.20;;;;;;;0.76;53.05;95222.22;107521;1284;32181;-76
2021/12/05 01:32:10;;;;;;;7.00;3.90;;;;;;;0.78;53.06;95228.17;107576;1284;42303;-77
2021/12/05 01:34:59;;;;;;;5.30;3.20;;;;;;;0.78;53.22;95233.14;107601;1284;35979;-77
2021/12/05 01:37:39;;;;;;;7.10;4.10;;;;;;;0.78;52.94;95229.02;107495;1285;34699;-76
2021/12/05 01:40:33;;;;;;;6.30;3.90;;;;;;;0.80;53.23;95224.02;107590;1282;29433;-77
2021/12/05 01:55:06;;;;;;;8.20;4.30;;;;;;;0.80;52.96;95202.88;107168;1290;41820;-76
2021/12/05 02:09:10;;;;;;;7.60;4.20;;;;;;;0.81;53.18;95205.81;107411;1286;42856;-76
2021/12/05 02:11:56;;;;;;;6.90;3.80;;;;;;;0.80;53.15;95210.30;107577;1283;33892;-77
2021/12/05 02:34:14;;;;;;;8.60;4.30;;;;;;;0.78;53.52;95201.41;107525;1284;35585;-77
2021/12/05 02:37:03;;;;;;;7.20;3.70;;;;;;;0.77;53.71;95196.92;107585;1282;30269;-77
2021/12/05 02:39:53;;;;;;;9.10;4.30;;;;;;;0.75;53.70;95209.64;107546;1284;43596;-78
2021/12/05 02:42:29;;;;;;;8.60;4.20;;;;;;;0.74;53.60;95212.09;107544;1283;33187;-77
2021/12/05 02:44:58;;;;;;;7.70;4.40;;;;;;;0.72;53.57;95216.30;107623;1284;28275;-77
2021/12/05 02:47:29;;;;;;;10.40;4.60;;;;;;;0.71;53.80;95219.98;107600;1284;36495;-77
2021/12/05 02:50:04;;;;;;;8.40;4.00;;;;;;;0.68;53.78;95215.48;107570;1284;35495;-77
2021/12/05 02:52:39;;;;;;;8.20;4.30;;;;;;;0.67;53.90;95216.81;107538;1283;33800;-77
2021/12/05 02:55:13;;;;;;;7.80;4.20;;;;;;;0.66;53.88;95214.41;107538;1283;44250;-77
2021/12/05 02:57:53;;;;;;;7.20;3.80;;;;;;;0.64;53.98;95212.63;107567;1284;40473;-77
2021/12/05 03:00:36;;;;;;;4.90;2.90;;;;;;;0.64;53.75;95210.96;107557;1284;38084;-77
2021/12/05 03:03:16;;;;;;;6.40;3.70;;;;;;;0.67;54.13;95211.81;107537;1282;35600;-77
2021/12/05 03:05:46;;;;;;;8.20;3.30;;;;;;;0.66;54.39;95207.38;107509;1284;33978;-77
2021/12/05 03:08:15;;;;;;;7.70;4.00;;;;;;;0.64;54.82;95201.11;107514;1284;38729;-77
2021/12/05 03:10:44;;;;;;;4.90;2.60;;;;;;;0.60;55.08;95205.36;107530;1284;41192;-77
2021/12/05 03:13:13;;;;;;;5.20;2.40;;;;;;;0.53;55.95;95207.64;107505;1282;35661;-77
2021/12/05 03:15:42;;;;;;;5.50;3.40;;;;;;;0.46;57.26;95207.45;107545;1284;29143;-77
2021/12/05 03:18:10;;;;;;;10.40;3.60;;;;;;;0.40;57.94;95211.19;107572;1284;32071;-77
2021/12/05 03:20:39;;;;;;;7.20;3.50;;;;;;;0.34;58.82;95211.82;107414;1287;31916;-77
2021/12/05 03:23:09;;;;;;;8.50;3.70;;;;;;;0.25;59.36;95213.34;107572;1284;38442;-77
2021/12/05 03:25:38;;;;;;;4.60;3.10;;;;;;;0.17;60.14;95206.10;107513;1284;36383;-77
2021/12/05 03:28:10;;;;;;;4.80;2.90;;;;;;;0.09;61.36;95206.11;107462;1287;32880;-77
2021/12/05 03:30:39;;;;;;;5.20;3.20;;;;;;;0.00;61.94;95212.81;107498;1284;41181;-77
2021/12/05 03:33:08;;;;;;;6.00;3.60;;;;;;;-0.05;62.79;95212.70;107429;1281;31547;-77
2021/12/05 03:35:36;;;;;;;6.40;3.00;;;;;;;-0.11;64.11;95214.59;107542;1282;32812;-77
2021/12/05 03:38:07;;;;;;;6.50;3.80;;;;;;;-0.19;64.70;95217.93;107414;1286;34232;-77
2021/12/05 03:40:37;;;;;;;6.30;2.50;;;;;;;-0.23;65.07;95216.42;107423;1285;33817;-77
2021/12/05 03:43:10;;;;;;;5.10;3.20;;;;;;;-0.26;66.53;95218.02;107535;1284;35903;-77
2021/12/05 03:45:44;;;;;;;7.00;4.00;;;;;;;-0.31;66.75;95219.98;107544;1284;30176;-77
2021/12/05 03:48:15;;;;;;;6.80;3.80;;;;;;;-0.37;66.61;95222.68;107543;1284;31480;-77
2021/12/05 03:50:45;;;;;;;7.60;3.70;;;;;;;-0.37;66.70;95223.14;107410;1285;47427;-77
2021/12/05 03:53:14;;;;;;;;;;;;;;;-0.42;67.00;95229.17;107441;1286;39668;-77
2021/12/05 03:55:45;;;;;;;6.50;3.60;;;;;;;-0.48;67.81;95236.34;107541;1282;44031;-77
2021/12/05 03:58:15;;;;;;;7.60;3.90;;;;;;;-0.55;68.00;95230.42;107435;1286;32366;-77
2021/12/05 04:00:56;;;;;;;7.00;3.70;;;;;;;-0.63;68.67;95230.65;107428;1281;34781;-77
2021/12/05 04:03:27;;;;;;;8.30;4.60;;;;;;;-0.75;70.13;95236.30;107409;1286;36116;-77
2021/12/05 04:05:58;;;;;;;10.50;4.90;;;;;;;-0.87;71.30;95234.60;107529;1287;32664;-77
2021/12/05 04:08:30;;;;;;;7.20;4.10;;;;;;;-0.90;70.96;95237.26;107603;1284;29183;-77
2021/12/05 04:11:04;;;;;;;7.30;4.00;;;;;;;-0.90;71.12;95241.52;107485;1287;29236;-77
2021/12/05 04:13:34;;;;;;;5.50;3.60;;;;;;;-0.90;71.69;95238.71;107580;1284;30789;-77
2021/12/05 04:16:06;;;;;;;7.50;3.90;;;;;;;-0.90;71.77;95235.96;107338;1287;30941;-77
2021/12/05 04:18:38;;;;;;;5.60;3.40;;;;;;;-0.91;72.41;95234.48;107435;1285;42942;-77
2021/12/05 04:21:09;;;;;;;6.20;3.50;;;;;;;-0.95;72.63;95235.27;107450;1281;36168;-76
2021/12/05 04:23:38;;;;;;;6.50;3.20;;;;;;;-1.00;73.18;95233.23;107504;1283;30662;-77
2021/12/05 04:26:10;;;;;;;8.80;3.90;;;;;;;-1.04;73.67;95235.50;107559;1284;32748;-77
2021/12/05 04:28:40;;;;;;;13.50;6.90;;;;;;;-1.06;74.02;95235.34;107443;1285;34000;-77
2021/12/05 04:31:09;;;;;;;5.90;3.10;;;;;;;-1.08;74.44;95226.66;107536;1284;35853;-77
2021/12/05 04:33:39;;;;;;;9.00;4.80;;;;;;;-1.12;75.22;95226.34;107499;1284;43312;-76
2021/12/05 04:36:10;;;;;;;11.60;6.40;;;;;;;-1.15;76.18;95227.69;107528;1284;35757;-76
2021/12/05 04:38:44;;;;;;;9.10;5.80;;;;;;;-1.12;76.38;95234.14;107563;1282;29047;-77
2021/12/05 04:41:14;;;;;;;7.10;3.80;;;;;;;-1.07;76.51;95234.85;107495;1284;40376;-77
2021/12/05 04:43:44;;;;;;;8.90;6.00;;;;;;;-1.09;76.71;95242.05;107545;1282;31554;-76
2021/12/05 04:46:16;;;;;;;7.90;4.50;;;;;;;-1.12;76.98;95245.90;107510;1284;45686;-77
2021/12/05 04:48:51;;;;;;;6.20;4.90;;;;;;;-1.16;77.25;95243.50;107543;1284;33141;-77
2021/12/05 04:51:24;;;;;;;8.00;5.00;;;;;;;-1.18;77.22;95245.80;107482;1284;39193;-77
2021/12/05 04:53:53;;;;;;;8.60;4.90;;;;;;;-1.16;77.07;95248.70;107454;1285;33328;-77
2021/12/05 04:56:23;;;;;;;5.90;3.20;;;;;;;-1.13;77.44;95251.27;107418;1285;46029;-77
2021/12/05 04:58:53;;;;;;;7.40;4.00;;;;;;;-1.13;77.38;95255.08;107504;1282;31166;-77
2021/12/05 05:01:23;;;;;;;8.90;4.50;;;;;;;-1.09;77.33;95255.26;107471;1286;29400;-77
2021/12/05 05:03:54;;;;;;;10.20;4.70;;;;;;;-1.06;77.37;95255.15;107499;1281;45943;-77
2021/12/05 05:06:23;;;;;;;7.40;4.40;;;;;;;-1.04;77.36;95258.29;107544;1283;34964;-77
2021/12/05 05:08:54;;;;;;;8.10;4.60;;;;;;;-1.03;77.57;95262.35;107360;1285;39700;-77
2021/12/05 05:11:26;;;;;;;7.80;4.90;;;;;;;-1.03;77.74;95264.91;107474;1284;43573;-77
2021/12/05 05:13:55;;;;;;;9.00;4.60;;;;;;;-1.02;77.58;95264.71;107558;1284;29991;-77
2021/12/05 05:16:26;;;;;;;8.00;5.00;;;;;;;-1.03;77.89;95265.54;107472;1282;47072;-77
2021/12/05 05:18:57;;;;;;;10.90;6.20;;;;;;;-1.02;77.96;95270.34;107547;1284;41365;-77
2021/12/05 05:21:40;;;;;;;9.80;5.50;;;;;;;-1.02;78.38;95271.52;107617;1284;29043;-77
2021/12/05 05:24:49;;;;;;;10.50;5.10;;;;;;;-1.00;78.35;95268.02;107481;1284;40923;-77
2021/12/05 05:47:07;;;;;;;10.00;5.40;;;;;;;-1.00;79.52;95282.83;107212;1284;44066;-77
2021/12/05 05:49:50;;;;;;;10.70;5.70;;;;;;;-1.04;79.87;95285.49;107457;1284;35998;-77
2021/12/05 05:52:21;;;;;;;10.60;5.10;;;;;;;-1.06;79.90;95280.32;107497;1284;43696;-78
2021/12/05 05:54:51;;;;;;;12.00;5.60;;;;;;;-1.08;79.76;95285.70;107462;1284;61550;-77
2021/12/05 05:57:24;;;;;;;8.90;5.00;;;;;;;-1.09;80.10;95287.20;107561;1284;28942;-77
2021/12/05 06:00:00;;;;;;;8.10;4.90;;;;;;;-1.07;80.21;95293.88;107400;1286;48830;-77
2021/12/05 06:05:16;;;;;;;9.80;5.60;;;;;;;-1.11;80.69;95301.05;107481;1284;46552;-77
2021/12/05 06:07:46;;;;;;;10.70;5.50;;;;;;;-1.10;80.89;95297.69;107489;1284;37283;-77
2021/12/05 06:10:18;;;;;;;8.30;5.10;;;;;;;-1.10;80.95;95299.98;107516;1284;37551;-77
2021/12/05 06:12:48;;;;;;;9.90;5.50;;;;;;;-1.09;80.90;95303.84;107522;1284;38125;-78
2021/12/05 06:15:19;;;;;;;10.10;5.10;;;;;;;-1.11;81.28;95309.64;107438;1287;28716;-77
2021/12/05 06:17:48;;;;;;;9.70;5.00;;;;;;;-1.11;81.47;95304.60;107494;1284;41388;-78
2021/12/05 06:20:19;;;;;;;9.10;4.90;;;;;;;-1.07;81.67;95307.45;107553;1284;28570;-77
2021/12/05 06:22:48;;;;;;;10.50;5.90;;;;;;;-1.05;81.69;95306.29;107505;1284;38486;-77
2021/12/05 06:25:22;;;;;;;10.70;5.50;;;;;;;-1.02;81.87;95304.24;107527;1284;47664;-77
2021/12/05 06:27:53;;;;;;;9.70;5.20;;;;;;;-0.98;82.20;95306.66;107463;1284;75466;-77
2021/12/05 06:30:32;;;;;;;9.40;4.70;;;;;;;-0.91;82.39;95303.48;107455;1281;51005;-77
2021/12/05 06:41:37;;;;;;;11.30;6.20;;;;;;;-0.83;82.69;95310.58;107450;1283;37938;-77
2021/12/05 06:46:53;;;;;;;12.50;6.40;;;;;;;-0.82;83.07;95316.72;107520;1281;48840;-77
2021/12/05 06:49:22;;;;;;;12.70;6.60;;;;;;;-0.81;83.08;95314.92;107551;1282;32504;-77
2021/12/05 06:51:51;;;;;;;11.90;6.40;;;;;;;-0.78;83.01;95316.94;107506;1284;33303;-77
2021/12/05 06:54:20;;;;;;;14.30;6.80;;;;;;;-0.77;83.42;95313.52;107540;1284;39260;-77
2021/12/05 06:56:48;;;;;;;13.00;7.00;;;;;;;-0.72;83.18;95308.84;107590;1284;36988;-77
2021/12/05 06:59:17;;;;;;;13.70;7.30;;;;;;;-0.72;83.33;95313.90;107533;1284;35136;-77
2021/12/05 07:01:46;;;;;;;13.80;7.20;;;;;;;-0.70;83.35;95312.79;107515;1284;39764;-77
2021/12/05 07:04:34;;;;;;;14.70;7.50;;;;;;;-0.68;83.38;95316.52;107529;1284;37214;-77
2021/12/05 07:07:04;;;;;;;14.90;7.60;;;;;;;-0.70;83.40;95318.10;107493;1284;41245;-77
2021/12/05 07:09:34;;;;;;;14.00;8.00;;;;;;;-0.70;83.46;95319.96;107531;1281;40322;-77
2021/12/05 07:12:31;;;;;;;15.80;8.50;;;;;;;-0.68;83.41;95322.24;107453;1284;36145;-77
2021/12/05 07:15:03;;;;;;;12.70;7.30;;;;;;;-0.67;83.61;95318.81;107501;1284;31121;-77
2021/12/05 07:20:17;;;;;;;14.00;6.60;;;;;;;-0.57;83.34;95323.36;107604;1283;25762;-77
2021/12/05 07:23:01;;;;;;;11.10;6.20;;;;;;;-0.49;83.16;95328.95;107462;1284;35059;-77
2021/12/05 07:25:38;;;;;;;13.80;7.20;;;;;;;-0.45;82.97;95335.55;107599;1284;33934;-77
2021/12/05 07:42:06;;;;;;;11.50;6.50;;;;;;;-0.27;82.14;95342.70;107534;1282;30928;-77
2021/12/05 07:44:35;;;;;;;14.60;8.60;;;;;;;-0.25;82.11;95334.74;107509;1284;33109;-77
2021/12/05 07:47:04;;;;;;;12.20;7.00;;;;;;;-0.23;82.23;95335.85;107523;1284;40168;-77
2021/12/05 07:49:33;;;;;;;11.50;6.90;;;;;;;-0.21;82.19;95337.02;107524;1284;30337;-78
2021/12/05 07:52:02;;;;;;;12.80;5.90;;;;;;;-0.19;82.29;95329.08;107506;1284;39739;-77
2021/12/05 07:54:37;;;;;;;15.00;8.10;;;;;;;-0.15;82.09;95326.58;107592;1284;42296;-77
2021/12/05 07:57:16;;;;;;;15.10;8.50;;;;;;;-0.12;81.93;95328.41;107546;1284;35404;-76
2021/12/05 07:59:58;;;;;;;12.10;7.40;;;;;;;-0.07;81.86;95328.24;107502;1284;34208;-77
2021/12/05 08:16:28;;;;;;;15.30;9.20;;;;;;;0.09;81.19;95338.69;107494;1284;35809;-77
2021/12/05 08:18:57;;;;;;;12.60;6.80;;;;;;;0.12;81.07;95337.88;107569;1284;34556;-77
2021/12/05 08:21:26;;;;;;;10.10;5.10;;;;;;;0.15;81.04;95337.62;107644;1284;32946;-77
2021/12/05 08:23:55;;;;;;;19.10;9.70;;;;;;;0.13;81.11;95338.58;107488;1284;69359;-77
2021/12/05 08:26:31;;;;;;;14.40;7.70;;;;;;;0.13;81.17;95335.97;107581;1281;32812;-76
2021/12/05 08:29:05;;;;;;;11.80;7.20;;;;;;;0.15;81.00;95338.71;107581;1284;32135;-76
2021/12/05 08:31:46;;;;;;;16.30;8.40;;;;;;;0.17;81.27;95336.30;107573;1284;33488;-76
2021/12/05 08:34:36;;;;;;;15.30;8.20;;;;;;;0.20;81.05;95343.20;107510;1284;40602;-77
2021/12/05 08:40:27;;;;;;;12.00;6.90;;;;;;;0.27;81.14;95346.33;107496;1284;42545;-78
2021/12/05 09:08:52;;;;;;;11.80;6.80;;;;;;;0.98;78.94;95363.48;107263;1287;29352;-77
2021/12/05 09:25:44;;;;;;;12.50;6.50;;;;;;;1.48;78.36;95352.16;107497;1284;30820;-77
2021/12/05 09:31:23;;;;;;;12.10;7.20;;;;;;;1.67;77.61;95354.93;107490;1284;43660;-77
2021/12/05 10:03:08;;;;;;;13.80;8.70;;;;;;;1.54;76.50;95363.62;107593;1284;38699;-77
2021/12/05 10:11:38;;;;;;;15.50;9.00;;;;;;;1.48;76.29;95365.42;107561;1284;36828;-77
2021/12/05 10:14:28;;;;;;;19.50;10.10;;;;;;;1.46;76.39;95370.38;107477;1284;37759;-77
2021/12/05 10:17:29;;;;;;;14.60;9.30;;;;;;;1.49;76.49;95371.65;107553;1283;39383;-78
2021/12/05 10:20:28;;;;;;;15.20;9.60;;;;;;;1.51;76.55;95377.87;107579;1283;32124;-77
2021/12/05 10:34:45;;;;;;;16.10;8.70;;;;;;;1.54;76.89;95376.12;107165;1290;40494;-77
2021/12/05 10:37:17;;;;;;;15.70;9.90;;;;;;;1.55;76.71;95372.67;107171;1290;36470;-77
2021/12/05 10:40:02;;;;;;;18.50;10.80;;;;;;;1.58;76.69;95372.91;107215;1287;35405;-77
2021/12/05 10:42:45;;;;;;;17.00;9.60;;;;;;;1.60;76.65;95371.78;107547;1284;36549;-77
2021/12/05 10:45:34;;;;;;;17.40;8.20;;;;;;;1.63;76.72;95379.52;107529;1282;30318;-77
2021/12/05 10:48:19;;;;;;;15.40;8.80;;;;;;;1.59;76.65;95379.50;107558;1284;29149;-77
2021/12/05 10:50:51;;;;;;;18.80;9.70;;;;;;;1.60;76.73;95378.52;107525;1284;44197;-77
2021/12/05 10:53:50;;;;;;;19.40;10.50;;;;;;;1.64;76.75;95374.34;107568;1284;33687;-77
2021/12/05 10:56:28;;;;;;;17.30;9.90;;;;;;;1.70;76.84;95369.96;107327;1287;36754;-77
2021/12/05 10:59:01;;;;;;;17.00;9.10;;;;;;;1.79;76.67;95368.06;107408;1287;34725;-77
2021/12/05 11:01:36;;;;;;;20.70;9.60;;;;;;;1.84;76.39;95371.61;107390;1287;40322;-77
2021/12/05 11:04:12;;;;;;;15.60;8.60;;;;;;;1.87;76.38;95369.64;107330;1287;39756;-77
2021/12/05 11:06:50;;;;;;;18.40;10.00;;;;;;;1.90;76.26;95366.67;107334;1287;32606;-77
2021/12/05 11:09:22;;;;;;;15.30;8.60;;;;;;;1.93;76.26;95366.95;107374;1286;29308;-77
2021/12/05 11:11:59;;;;;;;14.40;8.40;;;;;;;1.94;76.23;95367.83;107357;1287;38218;-77
2021/12/05 11:14:35;;;;;;;15.00;8.30;;;;;;;1.95;76.36;95370.14;107512;1284;27374;-77
2021/12/05 11:17:13;;;;;;;16.00;8.50;;;;;;;1.97;76.16;95372.94;107537;1284;52427;-77
2021/12/05 11:19:46;;;;;;;18.40;8.80;;;;;;;1.97;76.22;95373.59;107507;1284;32420;-77
2021/12/05 11:22:18;;;;;;;17.10;9.70;;;;;;;1.97;76.29;95378.21;107452;1285;41728;-77
2021/12/05 11:24:51;;;;;;;20.50;10.80;;;;;;;1.98;76.28;95379.38;107546;1285;38893;-77
2021/12/05 11:27:39;;;;;;;17.00;9.90;;;;;;;1.99;76.29;95388.31;107637;1285;28726;-77
2021/12/05 11:30:14;;;;;;;16.80;9.00;;;;;;;1.98;76.25;95391.13;107418;1285;38834;-77
2021/12/05 11:32:53;;;;;;;15.70;10.00;;;;;;;1.94;76.18;95392.45;107511;1285;31856;-77
2021/12/05 11:35:42;;;;;;;16.80;9.60;;;;;;;1.92;76.11;95392.91;107597;1285;34411;-77
2021/12/05 11:38:18;;;;;;;14.00;8.60;;;;;;;1.90;76.19;95391.40;107564;1284;41981;-77
2021/12/05 11:41:02;;;;;;;16.20;8.80;;;;;;;1.89;76.34;95394.48;107496;1285;36218;-77
2021/12/05 11:43:44;;;;;;;20.90;11.00;;;;;;;1.88;76.51;95396.24;107619;1284;33831;-77
2021/12/05 11:46:19;;;;;;;18.80;10.50;;;;;;;1.90;76.46;95396.15;107596;1284;38666;-77
2021/12/05 11:49:06;;;;;;;18.60;11.60;;;;;;;1.91;76.41;95398.45;107517;1285;33160;-77
2021/12/05 11:51:44;;;;;;;21.90;10.70;;;;;;;1.91;76.25;95400.70;107543;1285;36417;-77
2021/12/05 11:54:26;;;;;;;19.70;10.70;;;;;;;1.90;76.29;95406.29;107484;1284;38073;-77
2021/12/05 11:57:03;;;;;;;15.90;9.00;;;;;;;1.86;76.39;95410.45;107494;1281;36019;-77
2021/12/05 11:59:38;;;;;;;20.10;9.80;;;;;;;1.78;76.40;95418.91;107646;1285;33094;-77
2021/12/05 12:02:19;;;;;;;18.70;9.80;;;;;;;1.76;76.60;95424.55;107481;1284;42794;-77
2021/12/05 12:04:59;;;;;;;18.90;9.90;;;;;;;1.74;76.73;95425.53;107526;1284;38253;-77
2021/12/05 12:07:37;;;;;;;15.60;10.20;;;;;;;1.74;76.91;95427.30;107544;1285;31216;-77
2021/12/05 12:10:16;;;;;;;13.40;8.10;;;;;;;1.73;76.92;95427.05;107513;1285;31775;-77
2021/12/05 12:12:54;;;;;;;17.60;9.40;;;;;;;1.72;76.96;95430.13;107541;1285;30854;-77
2021/12/05 12:15:28;;;;;;;19.60;10.50;;;;;;;1.74;77.04;95429.29;107592;1285;38724;-77
2021/12/05 12:18:08;;;;;;;16.10;9.00;;;;;;;1.74;77.14;95433.95;107506;1285;36391;-77
2021/12/05 12:20:48;;;;;;;13.90;8.30;;;;;;;1.72;77.24;95434.61;107379;1285;37296;-77
2021/12/05 12:23:26;;;;;;;19.60;9.20;;;;;;;1.71;77.20;95434.81;107609;1284;40298;-76
2021/12/05 12:26:03;;;;;;;19.40;10.50;;;;;;;1.71;77.37;95436.13;107507;1285;40481;-77
2021/12/05 12:28:38;;;;;;;22.80;11.60;;;;;;;1.74;77.41;95436.70;107524;1284;35377;-77
2021/12/05 12:31:13;;;;;;;21.00;11.60;;;;;;;1.74;77.56;95433.98;107486;1285;37395;-76
2021/12/05 12:33:47;;;;;;;17.00;10.40;;;;;;;1.75;77.54;95428.63;107522;1285;35983;-77
2021/12/05 12:36:35;;;;;;;20.70;12.20;;;;;;;1.79;77.47;95425.91;107532;1285;38155;-77
2021/12/05 12:39:36;;;;;;;21.90;11.10;;;;;;;1.81;77.49;95426.02;107443;1285;44965;-77
2021/12/05 12:42:16;;;;;;;19.20;10.90;;;;;;;1.78;77.64;95422.41;107497;1285;32744;-77
2021/12/05 12:45:07;;;;;;;19.30;11.30;;;;;;;1.76;77.68;95423.55;107620;1284;33622;-77
2021/12/05 12:47:47;;;;;;;25.70;13.70;;;;;;;1.74;77.91;95424.38;107479;1284;37784;-77
2021/12/05 12:50:39;;;;;;;20.70;11.90;;;;;;;1.75;78.05;95418.42;107488;1284;33007;-77
2021/12/05 12:53:18;;;;;;;22.20;12.30;;;;;;;1.79;78.09;95417.92;107569;1284;33092;-77
2021/12/05 12:56:03;;;;;;;18.20;10.20;;;;;;;1.84;78.25;95414.89;107564;1284;27373;-77
2021/12/05 12:58:45;;;;;;;19.50;11.60;;;;;;;1.89;78.27;95413.55;107534;1284;35239;-77
2021/12/05 13:01:37;;;;;;;22.40;11.10;;;;;;;1.95;78.13;95412.79;107520;1285;38453;-77
2021/12/05 13:04:55;;;;;;;19.30;11.10;;;;;;;1.98;78.02;95414.45;107529;1285;34159;-77
2021/12/05 13:10:37;;;;;;;19.50;11.40;;;;;;;2.05;78.01;95420.12;107421;1283;44786;-77
2021/12/05 13:13:15;;;;;;;19.90;11.70;;;;;;;2.04;78.24;95416.88;107467;1285;42000;-77
2021/12/05 13:15:49;;;;;;;22.10;13.40;;;;;;;2.01;77.98;95413.57;107498;1284;28253;-77
2021/12/05 13:18:29;;;;;;;24.60;13.40;;;;;;;2.03;78.18;95415.30;107504;1284;36269;-77
2021/12/05 13:21:08;;;;;;;26.00;13.60;;;;;;;2.07;78.26;95421.38;107620;1284;35026;-77
2021/12/05 13:23:43;;;;;;;18.60;10.70;;;;;;;2.11;78.00;95428.15;107486;1282;53463;-77
2021/12/05 13:26:24;;;;;;;22.30;12.70;;;;;;;2.09;78.16;95429.23;107543;1284;34408;-77
2021/12/05 13:29:11;;;;;;;20.80;11.00;;;;;;;2.04;78.13;95426.97;107514;1284;33900;-77
2021/12/05 13:31:51;;;;;;;23.00;12.80;;;;;;;2.03;78.03;95431.61;107463;1284;40438;-77
2021/12/05 13:34:34;;;;;;;20.80;11.90;;;;;;;2.03;78.20;95433.55;107462;1284;36812;-77
2021/12/05 13:37:28;;;;;;;21.60;11.90;;;;;;;2.04;77.94;95430.89;107577;1285;40413;-77
2021/12/05 13:40:16;;;;;;;21.30;11.30;;;;;;;2.06;77.97;95427.59;107531;1285;39223;-77
2021/12/05 13:42:49;;;;;;;19.70;11.20;;;;;;;2.10;77.97;95423.69;107458;1285;35009;-77
2021/12/05 13:45:36;;;;;;;19.80;12.00;;;;;;;2.13;78.04;95423.41;107423;1284;40749;-77
2021/12/05 13:48:19;;;;;;;21.30;11.10;;;;;;;2.11;78.11;95428.36;107510;1284;28833;-77
2021/12/05 13:50:58;;;;;;;22.30;12.10;;;;;;;2.06;78.39;95430.16;107531;1284;30022;-77
2021/12/05 13:53:44;;;;;;;20.10;10.70;;;;;;;2.07;78.37;95426.86;107517;1284;35593;-77
2021/12/05 13:56:25;;;;;;;22.10;12.80;;;;;;;2.06;78.83;95429.85;107434;1285;47599;-76
2021/12/05 13:59:03;;;;;;;27.20;14.60;;;;;;;2.02;78.85;95433.23;107555;1284;39432;-77
2021/12/05 14:01:50;;;;;;;20.80;13.30;;;;;;;1.99;79.13;95429.87;107653;1284;36118;-77
2021/12/05 14:04:29;;;;;;;20.20;13.30;;;;;;;1.99;79.06;95427.98;107555;1284;33668;-76
2021/12/05 14:07:04;;;;;;;20.20;11.50;;;;;;;2.01;79.01;95428.47;107621;1284;32245;-77
2021/12/05 14:09:38;;;;;;;18.30;10.70;;;;;;;2.03;79.14;95430.46;107476;1284;34205;-76
2021/12/05 14:12:13;;;;;;;17.70;10.00;;;;;;;2.02;79.29;95433.29;107500;1284;32602;-76
2021/12/05 14:14:43;;;;;;;19.50;9.60;;;;;;;2.00;79.62;95431.87;107450;1285;51067;-77
2021/12/05 14:17:15;;;;;;;17.90;9.10;;;;;;;1.98;79.86;95434.24;107484;1285;44786;-76
2021/12/05 14:19:48;;;;;;;15.60;8.80;;;;;;;1.96;79.70;95444.31;107549;1284;29137;-76
2021/12/05 14:22:19;;;;;;;22.40;11.60;;;;;;;1.96;79.83;95447.08;107563;1284;33725;-77
2021/12/05 14:24:51;;;;;;;24.40;13.60;;;;;;;1.95;80.32;95446.66;107546;1284;33275;-76
2021/12/05 14:27:26;;;;;;;21.30;11.40;;;;;;;1.91;80.32;95448.68;107511;1284;38504;-76
2021/12/05 14:29:55;;;;;;;23.80;13.40;;;;;;;1.87;80.51;95449.80;107524;1284;36973;-76
2021/12/05 14:32:27;;;;;;;21.90;10.90;;;;;;;1.83;80.72;95451.50;107537;1284;36881;-77
2021/12/05 14:35:00;;;;;;;16.30;9.80;;;;;;;1.80;80.87;95453.73;107517;1284;42579;-77
2021/12/05 14:37:33;;;;;;;16.30;10.40;;;;;;;1.78;81.07;95457.73;107596;1284;35204;-77
2021/12/05 14:40:10;;;;;;;17.20;9.80;;;;;;;1.75;81.27;95464.67;107589;1284;35429;-77
2021/12/05 14:42:45;;;;;;;18.70;9.40;;;;;;;1.68;81.35;95465.66;107571;1284;32711;-76
2021/12/05 14:45:18;;;;;;;13.40;8.40;;;;;;;1.59;81.48;95468.42;107579;1284;34432;-77
2021/12/05 14:47:52;;;;;;;14.50;7.90;;;;;;;1.54;81.67;95473.52;107537;1282;43494;-77
2021/12/05 14:50:26;;;;;;;19.00;10.80;;;;;;;1.48;82.16;95475.32;107574;1284;36032;-77
2021/12/05 14:53:00;;;;;;;13.80;8.80;;;;;;;1.43;82.16;95480.04;107506;1284;44386;-76
2021/12/05 14:55:32;;;;;;;13.40;7.70;;;;;;;1.41;82.25;95482.63;107713;1283;36997;-76
2021/12/05 14:58:06;;;;;;;13.70;7.50;;;;;;;1.38;82.19;95486.23;107588;1284;33730;-77
2021/12/05 15:00:38;;;;;;;15.90;8.20;;;;;;;1.39;82.54;95492.52;107525;1284;41118;-77
2021/12/05 15:03:13;;;;;;;13.70;8.60;;;;;;;1.42;82.56;95496.44;107447;1284;47743;-77
2021/12/05 15:05:48;;;;;;;14.40;7.60;;;;;;;1.43;82.72;95507.83;107573;1282;38945;-77
2021/12/05 15:08:20;;;;;;;11.10;6.70;;;;;;;1.43;82.90;95512.79;107488;1285;46699;-77
2021/12/05 15:10:54;;;;;;;10.20;6.10;;;;;;;1.41;82.94;95515.67;107463;1284;32451;-77
2021/12/05 15:13:24;;;;;;;13.70;7.50;;;;;;;1.37;83.08;95519.97;107433;1284;42217;-77
2021/12/05 15:15:53;;;;;;;23.50;18.50;;;;;;;1.36;83.13;95519.75;107455;1284;32872;-77
2021/12/05 15:18:29;;;;;;;14.80;10.50;;;;;;;1.40;83.01;95520.79;107410;1285;41170;-76
2021/12/05 15:20:59;;;;;;;13.80;7.80;;;;;;;1.46;83.20;95530.25;107596;1284;34037;-77
2021/12/05 15:23:31;;;;;;;10.40;6.70;;;;;;;1.48;83.24;95532.61;107552;1282;39714;-77
2021/12/05 15:26:03;;;;;;;11.10;6.40;;;;;;;1.48;83.37;95535.33;107669;1282;33252;-77
2021/12/05 15:28:35;;;;;;;9.80;6.00;;;;;;;1.51;83.02;95533.31;107580;1284;33706;-77
2021/12/05 15:31:06;;;;;;;10.90;5.90;;;;;;;1.54;83.27;95529.01;107526;1284;46650;-77
2021/12/05 15:33:35;;;;;;;15.80;7.10;;;;;;;1.57;83.24;95530.93;107304;1283;227842;-77
2021/12/05 15:36:05;;;;;;;9.00;5.70;;;;;;;1.60;83.27;95533.15;107476;1284;32374;-77
2021/12/05 15:38:37;;;;;;;13.00;8.60;;;;;;;1.63;83.26;95535.36;107451;1284;41328;-77
2021/12/05 15:41:10;;;;;;;15.00;9.20;;;;;;;1.65;83.06;95535.17;107462;1284;37468;-77
2021/12/05 15:43:41;;;;;;;14.20;8.20;;;;;;;1.67;83.29;95541.25;107531;1284;33249;-76
2021/12/05 15:46:13;;;;;;;13.50;7.80;;;;;;;1.70;83.10;95547.98;107436;1284;36246;-76
2021/12/05 15:48:45;;;;;;;16.40;9.20;;;;;;;1.65;83.49;95550.44;107504;1284;36821;-77
2021/12/05 15:51:17;;;;;;;14.60;8.90;;;;;;;1.65;83.22;95551.78;107618;1284;32360;-76
2021/12/05 15:53:50;;;;;;;15.50;9.10;;;;;;;1.65;82.95;95551.73;107530;1284;40187;-77
2021/12/05 15:56:23;;;;;;;19.70;11.50;;;;;;;1.66;83.04;95553.04;107476;1284;29909;-77
2021/12/05 15:59:01;;;;;;;20.70;12.70;;;;;;;1.65;83.14;95552.94;107539;1284;29524;-77
2021/12/05 16:01:36;;;;;;;20.10;13.30;;;;;;;1.64;83.07;95558.25;107537;1285;42256;-76
2021/12/05 16:04:18;;;;;;;30.10;16.40;;;;;;;1.65;83.21;95562.39;107520;1284;41098;-77
2021/12/05 16:09:39;;;;;;;26.20;15.00;;;;;;;1.67;83.41;95549.81;107494;1282;36333;-77